sensor_id;sensor_type;location;lat;lon;timestamp;pressure;altitude;pressure_sealevel;temperature;humidity
54856;BME280;40748;53.168;5.800;2022-08-01T00:01:39;101589.23;;;20.34;80.52
54856;BME280;40748;53.168;5.800;2022-08-01T00:04:09;101593.42;;;20.35;81.14
54856;BME280;40748;53.168;5.800;2022-08-01T00:06:39;101590.55;;;20.36;80.88
54856;BME280;40748;53.168;5.800;2022-08-01T00:09:09;101591.72;;;20.25;80.76
54856;BME280;40748;53.168;5.800;2022-08-01T00:11:39;101594.45;;;20.28;81.19
54856;BME280;40748;53.168;5.800;2022-08-01T00:14:09;101594.45;;;20.30;81.19
54856;BME280;40748;53.168;5.800;2022-08-01T00:16:39;101595.36;;;20.27;81.05
54856;BME280;40748;53.168;5.800;2022-08-01T00:19:09;101596.95;;;20.23;81.02
54856;BME280;40748;53.168;5.800;2022-08-01T00:21:39;101602.31;;;20.15;81.13
54856;BME280;40748;53.168;5.800;2022-08-01T00:24:09;101597.63;;;20.19;81.66
54856;BME280;40748;53.168;5.800;2022-08-01T00:26:39;101603.53;;;20.20;81.27
54856;BME280;40748;53.168;5.800;2022-08-01T00:29:09;101604.17;;;20.17;81.23
54856;BME280;40748;53.168;5.800;2022-08-01T00:31:39;101602.34;;;20.19;81.29
54856;BME280;40748;53.168;5.800;2022-08-01T00:34:09;101602.47;;;20.17;81.16
54856;BME280;40748;53.168;5.800;2022-08-01T00:39:09;101597.25;;;20.12;81.07
54856;BME280;40748;53.168;5.800;2022-08-01T00:41:39;101599.41;;;20.10;81.21
54856;BME280;40748;53.168;5.800;2022-08-01T00:44:09;101595.47;;;20.11;81.24
54856;BME280;40748;53.168;5.800;2022-08-01T00:49:09;101600.81;;;20.07;81.17
54856;BME280;40748;53.168;5.800;2022-08-01T00:54:09;101600.42;;;20.05;81.14
54856;BME280;40748;53.168;5.800;2022-08-01T00:56:39;101604.90999999999;;;20.04;81.08
54856;BME280;40748;53.168;5.800;2022-08-01T00:59:09;101601.47;;;20.02;81.04
54856;BME280;40748;53.168;5.800;2022-08-01T01:01:39;101601.67;;;20.00;81.06
54856;BME280;40748;53.168;5.800;2022-08-01T01:06:42;101611.46;;;19.99;80.97
54856;BME280;40748;53.168;5.800;2022-08-01T01:09:14;101610.33;;;19.94;81.07
54856;BME280;40748;53.168;5.800;2022-08-01T01:14:10;101608.72;;;19.93;80.86
54856;BME280;40748;53.168;5.800;2022-08-01T01:16:39;101608.62;;;19.88;81.07
54856;BME280;40748;53.168;5.800;2022-08-01T01:19:10;101606.93;;;19.83;80.93
54856;BME280;40748;53.168;5.800;2022-08-01T01:26:40;101602.48;;;19.81;80.84
54856;BME280;40748;53.168;5.800;2022-08-01T01:29:11;101602.97;;;19.78;80.74
54856;BME280;40748;53.168;5.800;2022-08-01T01:31:40;101611.15999999999;;;19.71;81.03
54856;BME280;40748;53.168;5.800;2022-08-01T01:34:09;101608.4;;;19.73;81.35
54856;BME280;40748;53.168;5.800;2022-08-01T01:36:39;101607.73000000001;;;19.72;80.93
54856;BME280;40748;53.168;5.800;2022-08-01T01:39:09;101608.8;;;19.67;80.96
54856;BME280;40748;53.168;5.800;2022-08-01T01:46:39;101615.62;;;19.66;80.97
54856;BME280;40748;53.168;5.800;2022-08-01T01:49:09;101621.48;;;19.64;81.02
54856;BME280;40748;53.168;5.800;2022-08-01T01:51:39;101624.36;;;19.63;81.09
54856;BME280;40748;53.168;5.800;2022-08-01T01:56:39;101625.34000000001;;;19.56;80.93
54856;BME280;40748;53.168;5.800;2022-08-01T01:59:09;101624.81;;;19.55;81.13
54856;BME280;40748;53.168;5.800;2022-08-01T02:01:39;101624.3;;;19.56;81.05
54856;BME280;40748;53.168;5.800;2022-08-01T02:06:39;101629.02;;;19.54;80.94
54856;BME280;40748;53.168;5.800;2022-08-01T02:09:09;101630.55;;;19.50;80.97
54856;BME280;40748;53.168;5.800;2022-08-01T02:11:39;101635.63;;;19.51;81.09
54856;BME280;40748;53.168;5.800;2022-08-01T02:14:09;101634.42;;;19.50;81.08
54856;BME280;40748;53.168;5.800;2022-08-01T02:21:40;101633.46;;;19.49;81.08
54856;BME280;40748;53.168;5.800;2022-08-01T02:24:13;101630.86;;;19.50;81.00
54856;BME280;40748;53.168;5.800;2022-08-01T02:26:39;101626.81999999999;;;19.47;81.01
54856;BME280;40748;53.168;5.800;2022-08-01T02:29:10;101623.97;;;19.44;80.84
54856;BME280;40748;53.168;5.800;2022-08-01T02:31:40;101624.5;;;19.41;81.21
54856;BME280;40748;53.168;5.800;2022-08-01T02:34:09;101624.5;;;19.38;81.21
54856;BME280;40748;53.168;5.800;2022-08-01T02:39:09;101626.86;;;19.33;81.00
54856;BME280;40748;53.168;5.800;2022-08-01T02:41:41;101629.40999999999;;;19.32;81.00
54856;BME280;40748;53.168;5.800;2022-08-01T02:44:09;101638.2;;;19.33;81.01
54856;BME280;40748;53.168;5.800;2022-08-01T02:46:39;101638.2;;;19.32;80.95
54856;BME280;40748;53.168;5.800;2022-08-01T02:49:09;101642.97;;;19.27;80.97
54856;BME280;40748;53.168;5.800;2022-08-01T02:51:39;101649.87999999999;;;19.28;81.04
54856;BME280;40748;53.168;5.800;2022-08-01T02:54:09;101651.98000000001;;;19.26;80.98
54856;BME280;40748;53.168;5.800;2022-08-01T02:59:10;101655.19;;;19.23;80.85
54856;BME280;40748;53.168;5.800;2022-08-01T03:06:39;101672.22;;;19.21;80.68
54856;BME280;40748;53.168;5.800;2022-08-01T03:09:09;101672.22;;;19.17;80.68
54856;BME280;40748;53.168;5.800;2022-08-01T03:14:10;101667.72;;;19.14;80.67
54856;BME280;40748;53.168;5.800;2022-08-01T03:16:39;101666.97;;;19.15;80.66
54856;BME280;40748;53.168;5.800;2022-08-01T03:19:10;101670.84;;;19.10;80.53
54856;BME280;40748;53.168;5.800;2022-08-01T03:21:39;101669.86;;;19.11;80.57
54856;BME280;40748;53.168;5.800;2022-08-01T03:24:09;101668.98999999999;;;19.08;80.54
54856;BME280;40748;53.168;5.800;2022-08-01T03:26:39;101673.32;;;19.05;80.53
54856;BME280;40748;53.168;5.800;2022-08-01T03:29:10;101673.32;;;19.02;80.50
54856;BME280;40748;53.168;5.800;2022-08-01T03:31:39;101673.0;;;19.03;80.50
54856;BME280;40748;53.168;5.800;2022-08-01T03:39:09;101687.83;;;19.01;80.28
54856;BME280;40748;53.168;5.800;2022-08-01T03:41:40;101689.39;;;19.03;80.37
54856;BME280;40748;53.168;5.800;2022-08-01T03:44:10;101691.03;;;18.99;80.63
54856;BME280;40748;53.168;5.800;2022-08-01T03:46:40;101691.03;;;19.01;80.63
54856;BME280;40748;53.168;5.800;2022-08-01T03:49:10;101684.81;;;18.95;80.40
54856;BME280;40748;53.168;5.800;2022-08-01T03:51:39;101686.51999999999;;;18.97;80.43
54856;BME280;40748;53.168;5.800;2022-08-01T03:54:09;101687.05;;;18.95;80.20
54856;BME280;40748;53.168;5.800;2022-08-01T03:56:39;101691.09999999999;;;18.93;80.04
54856;BME280;40748;53.168;5.800;2022-08-01T03:59:09;101689.09;;;18.86;79.87
54856;BME280;40748;53.168;5.800;2022-08-01T04:01:39;101686.93;;;18.87;79.92
54856;BME280;40748;53.168;5.800;2022-08-01T04:04:09;101692.58;;;18.86;79.73
54856;BME280;40748;53.168;5.800;2022-08-01T04:06:39;101698.64;;;18.83;79.54
54856;BME280;40748;53.168;5.800;2022-08-01T04:09:09;101703.59;;;18.78;79.51
54856;BME280;40748;53.168;5.800;2022-08-01T04:14:09;101706.36;;;18.77;79.28
54856;BME280;40748;53.168;5.800;2022-08-01T04:16:39;101710.05;;;18.75;79.21
54856;BME280;40748;53.168;5.800;2022-08-01T04:19:09;101714.76;;;18.69;79.09
54856;BME280;40748;53.168;5.800;2022-08-01T04:21:39;101717.86;;;18.70;79.13
54856;BME280;40748;53.168;5.800;2022-08-01T04:26:39;101713.95;;;18.69;78.93
54856;BME280;40748;53.168;5.800;2022-08-01T04:29:09;101717.69;;;18.65;78.83
54856;BME280;40748;53.168;5.800;2022-08-01T04:31:39;101724.19;;;18.67;78.86
54856;BME280;40748;53.168;5.800;2022-08-01T04:34:09;101731.08;;;18.68;78.85
54856;BME280;40748;53.168;5.800;2022-08-01T04:36:39;101731.09;;;18.65;78.73
54856;BME280;40748;53.168;5.800;2022-08-01T04:39:09;101735.13;;;18.63;78.59
54856;BME280;40748;53.168;5.800;2022-08-01T04:41:39;101735.77;;;18.65;78.65
54856;BME280;40748;53.168;5.800;2022-08-01T04:44:09;101748.32;;;18.67;78.61
54856;BME280;40748;53.168;5.800;2022-08-01T04:46:39;101748.32;;;18.68;78.61
54856;BME280;40748;53.168;5.800;2022-08-01T04:49:10;101753.36;;;18.66;78.51
54856;BME280;40748;53.168;5.800;2022-08-01T04:56:39;101765.16;;;18.65;78.31
54856;BME280;40748;53.168;5.800;2022-08-01T04:59:09;101769.32;;;18.61;78.25
54856;BME280;40748;53.168;5.800;2022-08-01T05:01:39;101770.92;;;18.62;78.15
54856;BME280;40748;53.168;5.800;2022-08-01T05:06:39;101773.29999999999;;;18.61;78.03
54856;BME280;40748;53.168;5.800;2022-08-01T05:09:09;101777.65000000001;;;18.58;77.98
54856;BME280;40748;53.168;5.800;2022-08-01T05:11:39;101777.68;;;18.60;78.05
54856;BME280;40748;53.168;5.800;2022-08-01T05:14:09;101780.67;;;18.53;78.00
54856;BME280;40748;53.168;5.800;2022-08-01T05:16:39;101790.19;;;18.56;78.16
54856;BME280;40748;53.168;5.800;2022-08-01T05:19:09;101789.86;;;18.57;77.92
54856;BME280;40748;53.168;5.800;2022-08-01T05:21:39;101795.17;;;18.56;77.89
54856;BME280;40748;53.168;5.800;2022-08-01T05:26:39;101791.08;;;18.57;77.68
54856;BME280;40748;53.168;5.800;2022-08-01T05:29:09;101791.25;;;18.56;77.56
54856;BME280;40748;53.168;5.800;2022-08-01T05:31:39;101791.89;;;18.57;77.57
54856;BME280;40748;53.168;5.800;2022-08-01T05:39:09;101790.37;;;18.54;77.33
54856;BME280;40748;53.168;5.800;2022-08-01T05:41:39;101796.17;;;18.59;77.54
54856;BME280;40748;53.168;5.800;2022-08-01T05:44:09;101797.91;;;18.60;77.32
54856;BME280;40748;53.168;5.800;2022-08-01T05:46:39;101797.79999999999;;;18.62;77.29
54856;BME280;40748;53.168;5.800;2022-08-01T05:51:39;101803.12;;;18.67;77.22
54856;BME280;40748;53.168;5.800;2022-08-01T05:54:09;101800.57;;;18.69;77.17
54856;BME280;40748;53.168;5.800;2022-08-01T05:56:39;101803.2;;;18.75;77.12
54856;BME280;40748;53.168;5.800;2022-08-01T05:59:09;101808.09000000001;;;18.78;77.08
54856;BME280;40748;53.168;5.800;2022-08-01T06:01:39;101812.11;;;18.86;77.13
54856;BME280;40748;53.168;5.800;2022-08-01T06:04:09;101812.14;;;18.94;77.02
54856;BME280;40748;53.168;5.800;2022-08-01T06:06:39;101812.08;;;19.02;76.93
54856;BME280;40748;53.168;5.800;2022-08-01T06:09:09;101811.95;;;19.09;76.72
54856;BME280;40748;53.168;5.800;2022-08-01T06:11:39;101812.51999999999;;;19.18;76.68
54856;BME280;40748;53.168;5.800;2022-08-01T06:14:09;101813.4;;;19.26;76.32
54856;BME280;40748;53.168;5.800;2022-08-01T06:16:39;101813.76000000001;;;19.31;75.96
54856;BME280;40748;53.168;5.800;2022-08-01T06:19:09;101810.11;;;19.33;75.72
54856;BME280;40748;53.168;5.800;2022-08-01T06:21:39;101808.69;;;19.36;75.58
54856;BME280;40748;53.168;5.800;2022-08-01T06:24:09;101809.16;;;19.41;75.22
54856;BME280;40748;53.168;5.800;2022-08-01T06:26:39;101812.58;;;19.44;74.86
54856;BME280;40748;53.168;5.800;2022-08-01T06:29:09;101814.67;;;19.45;74.75
54856;BME280;40748;53.168;5.800;2022-08-01T06:31:39;101815.01;;;19.47;74.72
54856;BME280;40748;53.168;5.800;2022-08-01T06:34:09;101819.72;;;19.48;74.35
54856;BME280;40748;53.168;5.800;2022-08-01T06:36:39;101819.51000000001;;;19.58;74.32
54856;BME280;40748;53.168;5.800;2022-08-01T06:39:09;101827.72;;;19.57;74.12
54856;BME280;40748;53.168;5.800;2022-08-01T06:41:39;101827.72;;;19.72;74.12
54856;BME280;40748;53.168;5.800;2022-08-01T06:44:09;101827.36;;;20.01;73.84
54856;BME280;40748;53.168;5.800;2022-08-01T06:46:39;101832.62;;;20.65;75.33
54856;BME280;40748;53.168;5.800;2022-08-01T06:49:09;101832.64;;;21.53;77.59
54856;BME280;40748;53.168;5.800;2022-08-01T06:51:39;101829.40999999999;;;22.46;79.63
54856;BME280;40748;53.168;5.800;2022-08-01T06:54:09;101833.37;;;23.37;78.90
54856;BME280;40748;53.168;5.800;2022-08-01T06:56:39;101843.68;;;24.25;76.11
54856;BME280;40748;53.168;5.800;2022-08-01T06:59:09;101843.68;;;25.03;76.11
54856;BME280;40748;53.168;5.800;2022-08-01T07:01:39;101850.84000000001;;;25.68;73.89
54856;BME280;40748;53.168;5.800;2022-08-01T07:04:09;101843.66;;;26.36;69.82
54856;BME280;40748;53.168;5.800;2022-08-01T07:06:39;101850.06;;;26.99;68.78
54856;BME280;40748;53.168;5.800;2022-08-01T07:09:09;101840.32999999999;;;27.67;65.87
54856;BME280;40748;53.168;5.800;2022-08-01T07:11:39;101846.41;;;28.27;64.39
54856;BME280;40748;53.168;5.800;2022-08-01T07:14:09;101844.51000000001;;;28.82;62.55
54856;BME280;40748;53.168;5.800;2022-08-01T07:16:39;101848.67;;;29.37;60.74
54856;BME280;40748;53.168;5.800;2022-08-01T07:19:09;101846.33;;;29.87;58.95
54856;BME280;40748;53.168;5.800;2022-08-01T07:21:39;101845.0;;;30.33;56.72
54856;BME280;40748;53.168;5.800;2022-08-01T07:24:13;101850.81;;;30.86;54.90
54856;BME280;40748;53.168;5.800;2022-08-01T07:26:39;101850.81;;;31.30;53.52
54856;BME280;40748;53.168;5.800;2022-08-01T07:29:09;101849.83;;;31.66;51.92
54856;BME280;40748;53.168;5.800;2022-08-01T07:31:39;101850.98000000001;;;31.92;49.73
54856;BME280;40748;53.168;5.800;2022-08-01T07:34:09;101855.53;;;32.09;49.19
54856;BME280;40748;53.168;5.800;2022-08-01T07:36:39;101857.26;;;32.41;47.45
54856;BME280;40748;53.168;5.800;2022-08-01T07:39:09;101863.89;;;32.75;46.35
54856;BME280;40748;53.168;5.800;2022-08-01T07:41:39;101861.45;;;33.01;45.85
54856;BME280;40748;53.168;5.800;2022-08-01T07:44:09;101862.23;;;33.17;44.73
54856;BME280;40748;53.168;5.800;2022-08-01T07:46:39;101860.94;;;33.58;43.02
54856;BME280;40748;53.168;5.800;2022-08-01T07:49:09;101863.25;;;33.83;45.12
54856;BME280;40748;53.168;5.800;2022-08-01T07:51:39;101870.92;;;34.17;43.31
54856;BME280;40748;53.168;5.800;2022-08-01T07:54:09;101877.66;;;34.49;42.43
54856;BME280;40748;53.168;5.800;2022-08-01T07:56:39;101881.03;;;34.90;41.84
54856;BME280;40748;53.168;5.800;2022-08-01T07:59:09;101889.59;;;35.30;41.09
54856;BME280;40748;53.168;5.800;2022-08-01T08:01:39;101889.59;;;35.45;41.09
54856;BME280;40748;53.168;5.800;2022-08-01T08:04:09;101891.36;;;35.64;39.28
54856;BME280;40748;53.168;5.800;2022-08-01T08:06:39;101892.56;;;35.77;35.88
54856;BME280;40748;53.168;5.800;2022-08-01T08:09:09;101892.56;;;35.78;36.41
54856;BME280;40748;53.168;5.800;2022-08-01T08:11:39;101894.06;;;35.84;37.18
54856;BME280;40748;53.168;5.800;2022-08-01T08:14:09;101901.14;;;35.95;37.19
54856;BME280;40748;53.168;5.800;2022-08-01T08:16:39;101900.73;;;36.05;37.17
54856;BME280;40748;53.168;5.800;2022-08-01T08:19:09;101900.73;;;36.38;35.86
54856;BME280;40748;53.168;5.800;2022-08-01T08:21:39;101899.97;;;36.66;37.34
54856;BME280;40748;53.168;5.800;2022-08-01T08:24:09;101901.83;;;36.81;35.93
54856;BME280;40748;53.168;5.800;2022-08-01T08:26:39;101904.39;;;37.19;35.24
54856;BME280;40748;53.168;5.800;2022-08-01T08:29:09;101904.88;;;37.32;36.81
54856;BME280;40748;53.168;5.800;2022-08-01T08:31:39;101902.84;;;37.48;35.92
54856;BME280;40748;53.168;5.800;2022-08-01T08:34:09;101906.26;;;37.55;34.98
54856;BME280;40748;53.168;5.800;2022-08-01T08:36:39;101906.26;;;37.70;34.98
54856;BME280;40748;53.168;5.800;2022-08-01T08:39:09;101912.75;;;37.62;34.69
54856;BME280;40748;53.168;5.800;2022-08-01T08:41:39;101910.47;;;37.52;34.19
54856;BME280;40748;53.168;5.800;2022-08-01T08:44:09;101911.47;;;37.48;33.61
54856;BME280;40748;53.168;5.800;2022-08-01T08:46:40;101917.31;;;37.49;35.21
54856;BME280;40748;53.168;5.800;2022-08-01T08:49:10;101911.58;;;37.33;34.52
54856;BME280;40748;53.168;5.800;2022-08-01T08:51:39;101921.15;;;37.15;34.42
54856;BME280;40748;53.168;5.800;2022-08-01T08:54:10;101921.15;;;37.20;34.42
54856;BME280;40748;53.168;5.800;2022-08-01T08:56:39;101921.31000000001;;;37.36;36.07
54856;BME280;40748;53.168;5.800;2022-08-01T08:59:10;101927.25;;;37.34;35.77
54856;BME280;40748;53.168;5.800;2022-08-01T09:01:39;101930.94;;;37.30;34.61
54856;BME280;40748;53.168;5.800;2022-08-01T09:04:10;101940.44;;;37.16;34.88
54856;BME280;40748;53.168;5.800;2022-08-01T09:06:39;101940.44;;;37.31;34.88
54856;BME280;40748;53.168;5.800;2022-08-01T09:09:10;101936.91;;;37.47;34.76
54856;BME280;40748;53.168;5.800;2022-08-01T09:11:39;101936.91;;;37.62;35.61
54856;BME280;40748;53.168;5.800;2022-08-01T09:14:10;101940.59;;;37.72;35.85
54856;BME280;40748;53.168;5.800;2022-08-01T09:16:40;101941.76;;;37.90;35.89
54856;BME280;40748;53.168;5.800;2022-08-01T09:19:10;101939.72;;;37.70;36.77
54856;BME280;40748;53.168;5.800;2022-08-01T09:21:39;101942.97;;;37.20;35.71
54856;BME280;40748;53.168;5.800;2022-08-01T09:24:13;101941.24;;;36.54;35.22
54856;BME280;40748;53.168;5.800;2022-08-01T09:26:39;101936.08;;;36.57;31.27
54856;BME280;40748;53.168;5.800;2022-08-01T09:29:17;101943.84;;;36.84;35.55
54856;BME280;40748;53.168;5.800;2022-08-01T09:31:40;101947.09;;;37.10;36.54
54856;BME280;40748;53.168;5.800;2022-08-01T09:34:09;101947.24;;;37.43;35.28
54856;BME280;40748;53.168;5.800;2022-08-01T09:36:47;101949.36;;;37.53;31.78
54856;BME280;40748;53.168;5.800;2022-08-01T09:39:11;101946.27;;;37.57;36.01
54856;BME280;40748;53.168;5.800;2022-08-01T09:41:39;101947.33;;;37.75;35.85
54856;BME280;40748;53.168;5.800;2022-08-01T09:44:09;101950.01;;;38.12;36.49
54856;BME280;40748;53.168;5.800;2022-08-01T09:49:09;101951.11;;;38.49;36.28
54856;BME280;40748;53.168;5.800;2022-08-01T09:51:39;101957.19;;;38.78;34.87
54856;BME280;40748;53.168;5.800;2022-08-01T09:54:09;101953.59999999999;;;38.86;35.10
54856;BME280;40748;53.168;5.800;2022-08-01T09:56:40;101959.06;;;39.02;32.39
54856;BME280;40748;53.168;5.800;2022-08-01T09:59:09;101968.23000000001;;;38.96;34.24
54856;BME280;40748;53.168;5.800;2022-08-01T10:01:43;101967.74;;;39.07;34.57
54856;BME280;40748;53.168;5.800;2022-08-01T10:04:10;101967.6;;;39.10;35.06
54856;BME280;40748;53.168;5.800;2022-08-01T10:06:39;101966.97;;;39.15;34.66
54856;BME280;40748;53.168;5.800;2022-08-01T10:09:10;101976.19;;;39.28;34.76
54856;BME280;40748;53.168;5.800;2022-08-01T10:11:40;101972.94;;;39.42;34.83
54856;BME280;40748;53.168;5.800;2022-08-01T10:14:09;101969.9;;;39.50;34.48
54856;BME280;40748;53.168;5.800;2022-08-01T10:16:39;101974.87999999999;;;39.57;34.56
54856;BME280;40748;53.168;5.800;2022-08-01T10:19:09;101973.6;;;39.51;34.28
54856;BME280;40748;53.168;5.800;2022-08-01T10:21:39;101976.39;;;39.21;33.79
54856;BME280;40748;53.168;5.800;2022-08-01T10:24:09;101973.06999999999;;;39.20;34.35
54856;BME280;40748;53.168;5.800;2022-08-01T10:26:39;101971.41;;;39.31;34.73
54856;BME280;40748;53.168;5.800;2022-08-01T10:29:09;101975.11;;;39.49;34.58
54856;BME280;40748;53.168;5.800;2022-08-01T10:31:39;101975.11;;;39.77;34.58
54856;BME280;40748;53.168;5.800;2022-08-01T10:34:09;101971.78;;;39.89;34.80
54856;BME280;40748;53.168;5.800;2022-08-01T10:36:39;101973.27;;;39.61;34.44
54856;BME280;40748;53.168;5.800;2022-08-01T10:39:10;101973.75;;;39.27;33.16
54856;BME280;40748;53.168;5.800;2022-08-01T10:41:40;101973.75;;;39.14;33.20
54856;BME280;40748;53.168;5.800;2022-08-01T10:44:09;101976.81999999999;;;39.27;33.48
54856;BME280;40748;53.168;5.800;2022-08-01T10:46:39;101971.08;;;39.15;33.79
54856;BME280;40748;53.168;5.800;2022-08-01T10:49:10;101973.03;;;39.01;32.95
54856;BME280;40748;53.168;5.800;2022-08-01T10:51:39;101973.03;;;38.92;32.95
54856;BME280;40748;53.168;5.800;2022-08-01T10:54:10;101974.97;;;38.79;32.97
54856;BME280;40748;53.168;5.800;2022-08-01T10:56:40;101980.44;;;38.61;32.76
54856;BME280;40748;53.168;5.800;2022-08-01T10:59:09;101970.26;;;38.45;32.65
54856;BME280;40748;53.168;5.800;2022-08-01T11:01:39;101969.76;;;38.31;32.29
54856;BME280;40748;53.168;5.800;2022-08-01T11:04:10;101970.33;;;38.13;32.34
54856;BME280;40748;53.168;5.800;2022-08-01T11:06:42;101969.5;;;37.95;32.27
54856;BME280;40748;53.168;5.800;2022-08-01T11:09:16;101972.34999999999;;;37.65;32.44
54856;BME280;40748;53.168;5.800;2022-08-01T11:14:09;101976.61;;;37.08;31.75
54856;BME280;40748;53.168;5.800;2022-08-01T11:16:40;101980.83;;;36.87;31.68
54856;BME280;40748;53.168;5.800;2022-08-01T11:19:09;101973.1;;;36.75;31.67
54856;BME280;40748;53.168;5.800;2022-08-01T11:24:09;101973.99;;;36.92;32.32
54856;BME280;40748;53.168;5.800;2022-08-01T11:26:39;101979.1;;;37.17;32.10
54856;BME280;40748;53.168;5.800;2022-08-01T11:29:12;101977.94;;;37.33;32.20
54856;BME280;40748;53.168;5.800;2022-08-01T11:31:39;101974.8;;;37.51;31.97
54856;BME280;40748;53.168;5.800;2022-08-01T11:34:09;101980.89;;;37.78;32.14
54856;BME280;40748;53.168;5.800;2022-08-01T11:36:39;101974.58;;;37.97;31.60
54856;BME280;40748;53.168;5.800;2022-08-01T11:39:15;101972.56999999999;;;38.28;31.75
54856;BME280;40748;53.168;5.800;2022-08-01T11:41:40;101970.97;;;38.63;31.56
54856;BME280;40748;53.168;5.800;2022-08-01T11:44:10;101976.15;;;38.79;31.31
54856;BME280;40748;53.168;5.800;2022-08-01T11:46:47;101979.51000000001;;;38.92;30.99
54856;BME280;40748;53.168;5.800;2022-08-01T11:51:39;101979.04999999999;;;38.48;29.58
54856;BME280;40748;53.168;5.800;2022-08-01T11:54:09;101976.01;;;38.42;29.43
54856;BME280;40748;53.168;5.800;2022-08-01T11:56:39;101978.02;;;38.43;29.61
54856;BME280;40748;53.168;5.800;2022-08-01T11:59:09;101972.6;;;38.38;29.45
54856;BME280;40748;53.168;5.800;2022-08-01T12:01:40;101973.78;;;38.12;29.24
54856;BME280;40748;53.168;5.800;2022-08-01T12:04:09;101977.08;;;38.05;28.75
54856;BME280;40748;53.168;5.800;2022-08-01T12:06:39;101982.95000000001;;;37.87;28.55
54856;BME280;40748;53.168;5.800;2022-08-01T12:09:17;101982.95000000001;;;37.79;28.52
54856;BME280;40748;53.168;5.800;2022-08-01T12:11:39;101985.76000000001;;;37.70;28.69
54856;BME280;40748;53.168;5.800;2022-08-01T12:14:09;101986.95;;;37.50;28.64
54856;BME280;40748;53.168;5.800;2022-08-01T12:16:39;101983.15;;;37.04;28.26
54856;BME280;40748;53.168;5.800;2022-08-01T12:19:09;101976.84000000001;;;36.65;27.84
54856;BME280;40748;53.168;5.800;2022-08-01T12:21:39;101971.77;;;36.43;28.15
54856;BME280;40748;53.168;5.800;2022-08-01T12:24:09;101974.56;;;36.18;28.31
54856;BME280;40748;53.168;5.800;2022-08-01T12:26:40;101978.35;;;35.92;28.11
54856;BME280;40748;53.168;5.800;2022-08-01T12:29:09;101979.58;;;35.59;28.29
54856;BME280;40748;53.168;5.800;2022-08-01T12:31:39;101973.67;;;35.25;28.25
54856;BME280;40748;53.168;5.800;2022-08-01T12:36:39;101977.39;;;34.67;28.66
54856;BME280;40748;53.168;5.800;2022-08-01T12:39:09;101976.98000000001;;;34.24;29.01
54856;BME280;40748;53.168;5.800;2022-08-01T12:41:39;101969.81;;;34.13;28.29
54856;BME280;40748;53.168;5.800;2022-08-01T12:44:12;101970.56;;;33.97;28.92
54856;BME280;40748;53.168;5.800;2022-08-01T12:46:39;101977.48;;;33.70;29.22
54856;BME280;40748;53.168;5.800;2022-08-01T12:49:09;101976.84000000001;;;33.45;28.88
54856;BME280;40748;53.168;5.800;2022-08-01T12:51:39;101970.56999999999;;;33.19;29.10
54856;BME280;40748;53.168;5.800;2022-08-01T12:54:09;101973.47;;;32.91;29.35
54856;BME280;40748;53.168;5.800;2022-08-01T12:56:39;101971.78;;;32.74;29.40
54856;BME280;40748;53.168;5.800;2022-08-01T13:01:39;101964.56;;;32.23;29.90
54856;BME280;40748;53.168;5.800;2022-08-01T13:04:09;101964.56;;;32.03;29.90
54856;BME280;40748;53.168;5.800;2022-08-01T13:06:39;101971.04000000001;;;31.84;30.05
54856;BME280;40748;53.168;5.800;2022-08-01T13:09:09;101970.48;;;31.63;30.29
54856;BME280;40748;53.168;5.800;2022-08-01T13:11:39;101968.16;;;31.40;30.05
54856;BME280;40748;53.168;5.800;2022-08-01T13:14:09;101965.48;;;31.17;30.06
54856;BME280;40748;53.168;5.800;2022-08-01T13:16:46;101971.04000000001;;;31.05;30.88
54856;BME280;40748;53.168;5.800;2022-08-01T13:19:09;101967.58;;;30.96;31.38
54856;BME280;40748;53.168;5.800;2022-08-01T13:21:39;101968.09;;;30.88;31.91
54856;BME280;40748;53.168;5.800;2022-08-01T13:24:10;101966.17;;;30.79;31.92
54856;BME280;40748;53.168;5.800;2022-08-01T13:26:41;101960.85;;;30.72;32.07
54856;BME280;40748;53.168;5.800;2022-08-01T13:29:10;101961.1;;;30.59;31.86
54856;BME280;40748;53.168;5.800;2022-08-01T13:31:40;101959.92;;;30.47;31.74
54856;BME280;40748;53.168;5.800;2022-08-01T13:34:10;101963.93000000001;;;30.37;32.10
54856;BME280;40748;53.168;5.800;2022-08-01T13:36:40;101960.39;;;30.25;32.18
54856;BME280;40748;53.168;5.800;2022-08-01T13:39:09;101960.74;;;30.09;32.31
54856;BME280;40748;53.168;5.800;2022-08-01T13:41:39;101960.74;;;29.94;32.03
54856;BME280;40748;53.168;5.800;2022-08-01T13:44:09;101960.63;;;29.77;32.07
54856;BME280;40748;53.168;5.800;2022-08-01T13:46:40;101957.59000000001;;;29.59;32.48
54856;BME280;40748;53.168;5.800;2022-08-01T13:49:10;101956.09;;;29.45;32.46
54856;BME280;40748;53.168;5.800;2022-08-01T13:51:39;101961.64;;;29.36;32.81
54856;BME280;40748;53.168;5.800;2022-08-01T13:54:09;101958.31;;;29.26;32.81
54856;BME280;40748;53.168;5.800;2022-08-01T13:56:39;101958.31;;;29.15;32.95
54856;BME280;40748;53.168;5.800;2022-08-01T13:59:09;101961.6;;;29.08;33.46
54856;BME280;40748;53.168;5.800;2022-08-01T14:01:39;101963.28;;;28.99;33.48
54856;BME280;40748;53.168;5.800;2022-08-01T14:04:09;101963.28;;;28.93;33.48
54856;BME280;40748;53.168;5.800;2022-08-01T14:06:39;101966.94;;;28.85;33.50
54856;BME280;40748;53.168;5.800;2022-08-01T14:09:09;101967.75;;;28.80;33.99
54856;BME280;40748;53.168;5.800;2022-08-01T14:11:39;101969.7;;;28.81;34.33
54856;BME280;40748;53.168;5.800;2022-08-01T14:14:09;101969.61;;;28.83;34.58
54856;BME280;40748;53.168;5.800;2022-08-01T14:16:39;101971.11;;;28.70;34.68
54856;BME280;40748;53.168;5.800;2022-08-01T14:19:09;101967.52;;;28.56;33.93